createdAt,value
2023-10-29T00:03:01.678Z,53.59
2023-10-29T00:06:06.144Z,53.53
2023-10-29T00:09:08.980Z,53.37
2023-10-29T00:12:11.761Z,53.19
2023-10-29T00:15:14.592Z,53.48
2023-10-29T00:18:18.857Z,53.30
2023-10-29T00:21:23.035Z,53.32
2023-10-29T00:24:25.886Z,53.34
2023-10-29T00:27:28.687Z,53.25
2023-10-29T00:30:31.455Z,53.09
2023-10-29T00:33:34.271Z,53.19
2023-10-29T00:36:38.507Z,53.26
2023-10-29T00:39:42.199Z,52.97
2023-10-29T00:42:45.086Z,52.91
2023-10-29T00:45:53.909Z,52.77
2023-10-29T00:48:56.833Z,53.22
2023-10-29T00:52:01.257Z,52.91
2023-10-29T00:55:04.206Z,52.92
2023-10-29T00:58:06.984Z,53.25
2023-10-29T01:01:09.840Z,52.88
2023-10-29T01:04:12.659Z,53.16
2023-10-29T01:07:17.709Z,53.09
2023-10-29T01:10:20.630Z,52.92
2023-10-29T01:13:23.472Z,52.73
2023-10-29T01:16:26.301Z,53.01
2023-10-29T01:19:29.130Z,52.91
2023-10-29T01:22:34.120Z,52.92
2023-10-29T01:25:36.961Z,52.99
2023-10-29T01:28:39.822Z,52.87
2023-10-29T01:31:42.697Z,53.12
2023-10-29T01:34:45.726Z,52.79
2023-10-29T01:37:51.594Z,52.70
2023-10-29T01:40:54.482Z,52.95
2023-10-29T01:43:57.291Z,52.68
2023-10-29T01:47:00.074Z,52.81
2023-10-29T01:50:02.875Z,52.91
2023-10-29T01:53:07.295Z,52.81
2023-10-29T01:56:10.441Z,52.90
2023-10-29T01:59:14.415Z,52.89
2023-10-29T02:02:17.305Z,53.10
2023-10-29T02:05:20.048Z,53.02
2023-10-29T02:08:24.261Z,52.88
2023-10-29T02:11:27.093Z,53.01
2023-10-29T02:14:31.328Z,52.99
2023-10-29T02:17:34.386Z,52.69
2023-10-29T02:20:37.328Z,53.11
2023-10-29T02:23:41.554Z,52.98
2023-10-29T02:26:44.420Z,52.83
2023-10-29T02:29:47.321Z,53.08
2023-10-29T02:32:50.189Z,52.89
2023-10-29T02:35:53.096Z,52.91
2023-10-29T02:38:59.217Z,53.06
2023-10-29T02:42:02.092Z,52.92
2023-10-29T02:45:05.460Z,52.92
2023-10-29T02:48:08.372Z,52.84
2023-10-29T02:51:13.254Z,52.96
2023-10-29T02:54:17.519Z,53.08
2023-10-29T02:57:20.343Z,52.82
2023-10-29T03:00:23.118Z,53.05
2023-10-29T03:03:26.049Z,52.96
2023-10-29T03:06:29.869Z,52.78
2023-10-29T03:09:34.092Z,52.91
2023-10-29T03:12:36.956Z,52.84
2023-10-29T03:15:39.836Z,52.92
2023-10-29T03:18:42.664Z,52.99
2023-10-29T03:21:45.483Z,53.22
2023-10-29T03:24:50.056Z,52.89
2023-10-29T03:27:53.239Z,53.03
2023-10-29T03:30:56.444Z,52.77
2023-10-29T03:33:59.181Z,52.84
2023-10-29T03:37:02.050Z,52.79
2023-10-29T03:40:07.490Z,53.06
2023-10-29T03:43:10.440Z,53.06
2023-10-29T03:46:13.318Z,52.73
2023-10-29T03:49:16.931Z,52.96
2023-10-29T03:52:20.780Z,52.91
2023-10-29T03:55:25.289Z,52.92
2023-10-29T03:58:28.162Z,52.82
2023-10-29T04:01:30.997Z,53.04
2023-10-29T04:04:34.580Z,52.88
2023-10-29T04:07:38.724Z,52.73
2023-10-29T04:10:43.010Z,52.77
2023-10-29T04:13:46.405Z,52.92
2023-10-29T04:16:49.210Z,52.90
2023-10-29T04:19:52.194Z,52.79
2023-10-29T04:22:54.988Z,52.89
2023-10-29T04:25:59.183Z,52.86
2023-10-29T04:29:02.002Z,52.52
2023-10-29T04:32:04.938Z,52.82
2023-10-29T04:35:08.068Z,52.93
2023-10-29T04:38:10.860Z,52.73
2023-10-29T04:41:15.042Z,52.71
2023-10-29T04:44:17.884Z,52.65
2023-10-29T04:47:20.717Z,52.62
2023-10-29T04:50:23.842Z,52.61
2023-10-29T04:53:27.782Z,52.65
2023-10-29T04:56:32.085Z,52.67
2023-10-29T04:59:37.913Z,52.66
2023-10-29T05:02:40.789Z,52.74
2023-10-29T05:05:43.684Z,52.80
2023-10-29T05:08:46.539Z,52.69
2023-10-29T05:11:51.038Z,52.74
2023-10-29T05:14:53.935Z,52.92
2023-10-29T05:17:57.002Z,52.62
2023-10-29T05:21:02.378Z,52.80
2023-10-29T05:24:06.169Z,52.53
2023-10-29T05:27:10.626Z,52.81
2023-10-29T05:30:13.721Z,52.80
2023-10-29T05:33:16.658Z,52.63
2023-10-29T05:36:19.480Z,52.64
2023-10-29T05:39:22.248Z,52.80
2023-10-29T05:42:26.614Z,52.68
2023-10-29T05:45:29.549Z,52.52
2023-10-29T05:48:32.422Z,52.79
2023-10-29T05:51:35.324Z,52.70
2023-10-29T05:54:38.143Z,52.74
2023-10-29T05:57:42.309Z,52.63
2023-10-29T06:00:45.220Z,52.68
2023-10-29T06:03:48.219Z,52.71
2023-10-29T06:06:51.181Z,52.57
2023-10-29T06:09:53.983Z,52.67
2023-10-29T06:12:59.438Z,52.63
2023-10-29T06:16:02.260Z,52.76
2023-10-29T06:19:05.052Z,52.65
2023-10-29T06:22:09.188Z,52.70
2023-10-29T06:25:12.030Z,52.72
2023-10-29T06:28:16.236Z,52.71
2023-10-29T06:31:19.182Z,52.77
2023-10-29T06:34:23.651Z,52.62
2023-10-29T06:37:26.487Z,52.68
2023-10-29T06:40:29.278Z,52.71
2023-10-29T06:43:33.594Z,52.54
2023-10-29T06:46:36.422Z,52.61
2023-10-29T06:49:39.273Z,52.72
2023-10-29T06:52:42.415Z,52.56
2023-10-29T06:55:45.338Z,52.43
2023-10-29T06:58:49.726Z,52.56
2023-10-29T07:01:53.527Z,52.58
2023-10-29T07:04:56.578Z,52.47
2023-10-29T07:08:00.284Z,52.65
2023-10-29T07:11:03.628Z,52.55
2023-10-29T07:14:07.925Z,52.50
2023-10-29T07:17:10.700Z,52.63
2023-10-29T07:20:14.679Z,52.46
2023-10-29T07:23:17.501Z,52.48
2023-10-29T07:26:20.301Z,52.44
2023-10-29T07:29:24.541Z,52.40
2023-10-29T07:32:27.490Z,52.39
2023-10-29T07:35:30.354Z,52.34
2023-10-29T07:38:33.220Z,52.42
2023-10-29T07:41:36.141Z,52.29
2023-10-29T07:44:40.310Z,52.44
2023-10-29T07:47:43.237Z,52.42
2023-10-29T07:50:50.884Z,52.41
2023-10-29T07:53:53.820Z,52.39
2023-10-29T07:56:56.665Z,52.43
2023-10-29T08:00:01.143Z,52.35
2023-10-29T08:03:04.026Z,52.36
2023-10-29T08:06:07.059Z,52.23
2023-10-29T08:09:10.303Z,52.33
2023-10-29T08:12:14.162Z,52.33
2023-10-29T08:15:18.540Z,52.28
2023-10-29T08:18:21.611Z,52.23
2023-10-29T08:21:24.443Z,52.25
2023-10-29T08:24:27.307Z,52.26
2023-10-29T08:27:30.370Z,52.20
2023-10-29T08:30:34.698Z,52.08
2023-10-29T08:33:37.631Z,52.29
2023-10-29T08:36:40.533Z,52.21
2023-10-29T08:39:43.284Z,52.22
2023-10-29T08:42:46.220Z,52.07
2023-10-29T08:45:50.520Z,52.18
2023-10-29T08:48:53.511Z,52.19
2023-10-29T08:51:56.328Z,52.18
2023-10-29T08:54:59.144Z,52.15
2023-10-29T08:58:02.065Z,52.11
2023-10-29T09:01:11.273Z,52.08
2023-10-29T09:04:14.149Z,52.09
2023-10-29T09:07:18.302Z,52.09
2023-10-29T09:10:21.148Z,52.17
2023-10-29T09:13:25.296Z,51.97
2023-10-29T09:16:29.555Z,51.89
2023-10-29T09:19:32.634Z,51.90
2023-10-29T09:22:35.461Z,51.98
2023-10-29T09:25:38.273Z,51.91
2023-10-29T09:28:41.038Z,51.94
2023-10-29T09:31:45.358Z,52.00
2023-10-29T09:34:48.331Z,52.05
2023-10-29T09:37:51.324Z,51.89
2023-10-29T09:40:56.744Z,52.00
2023-10-29T09:44:00.744Z,51.75
2023-10-29T09:47:13.062Z,51.75
2023-10-29T09:50:16.444Z,51.94
2023-10-29T09:53:19.963Z,51.96
2023-10-29T09:56:22.907Z,52.05
2023-10-29T09:59:25.710Z,51.97
2023-10-29T10:02:30.449Z,51.91
2023-10-29T10:05:34.258Z,51.86
2023-10-29T10:08:37.103Z,51.85
2023-10-29T10:11:39.932Z,52.05
2023-10-29T10:14:42.798Z,51.98
2023-10-29T10:17:50.959Z,51.84
2023-10-29T10:20:59.191Z,51.91
2023-10-29T10:24:02.073Z,51.91
2023-10-29T10:27:05.129Z,51.81
2023-10-29T10:30:24.924Z,51.83
2023-10-29T10:33:30.253Z,51.72
2023-10-29T10:36:33.705Z,51.64
2023-10-29T10:39:36.576Z,51.84
2023-10-29T10:42:39.455Z,51.93
2023-10-29T10:45:43.046Z,51.78
2023-10-29T10:48:47.424Z,51.63
2023-10-29T10:51:51.256Z,51.83
2023-10-29T10:54:54.698Z,52.07
2023-10-29T10:57:58.073Z,51.89
2023-10-29T11:01:00.979Z,51.89
2023-10-29T11:04:06.021Z,51.88
2023-10-29T11:07:08.941Z,51.86
2023-10-29T11:10:14.641Z,51.84
2023-10-29T11:13:21.381Z,51.80
2023-10-29T11:16:26.306Z,51.82
2023-10-29T11:19:43.763Z,51.69
2023-10-29T11:22:49.334Z,51.83
2023-10-29T11:25:52.547Z,51.83
2023-10-29T11:28:56.368Z,51.74
2023-10-29T11:32:25.015Z,51.73
2023-10-29T11:35:30.497Z,51.63
2023-10-29T11:38:35.612Z,51.62
2023-10-29T11:41:41.331Z,51.57
2023-10-29T11:44:45.513Z,51.62
2023-10-29T11:48:03.639Z,51.47
2023-10-29T11:51:20.741Z,51.59
2023-10-29T11:54:23.655Z,51.58
2023-10-29T11:57:26.947Z,51.58
2023-10-29T12:00:38.298Z,51.58
2023-10-29T12:03:41.258Z,51.45
2023-10-29T12:06:46.609Z,51.57
2023-10-29T12:09:49.668Z,51.46
2023-10-29T12:12:55.825Z,51.45
2023-10-29T12:15:59.514Z,51.44
2023-10-29T12:19:03.573Z,51.41
2023-10-29T12:22:15.789Z,51.25
2023-10-29T12:25:19.790Z,51.42
2023-10-29T12:28:23.348Z,51.24
2023-10-29T12:31:29.332Z,51.26
2023-10-29T12:34:47.055Z,51.22
2023-10-29T12:37:54.147Z,51.09
2023-10-29T12:41:12.483Z,51.19
2023-10-29T12:44:17.319Z,51.37
2023-10-29T12:47:20.216Z,51.40
2023-10-29T12:50:23.082Z,51.39
2023-10-29T12:53:28.369Z,51.50
2023-10-29T12:56:31.233Z,51.23
2023-10-29T12:59:35.065Z,51.41
2023-10-29T13:02:37.988Z,51.71
2023-10-29T13:05:41.025Z,51.59
2023-10-29T13:08:47.531Z,51.40
2023-10-29T13:11:53.012Z,51.48
2023-10-29T13:14:56.694Z,51.54
2023-10-29T13:18:01.053Z,51.45
2023-10-29T13:21:04.272Z,51.69
2023-10-29T13:24:09.521Z,51.36
2023-10-29T13:27:12.472Z,51.75
2023-10-29T13:30:15.728Z,51.48
2023-10-29T13:33:18.651Z,51.53
2023-10-29T13:36:23.813Z,51.86
2023-10-29T13:39:28.042Z,51.67
2023-10-29T13:42:31.094Z,51.61
2023-10-29T13:45:34.003Z,51.58
2023-10-29T13:48:36.936Z,51.36
2023-10-29T13:51:40.660Z,51.31
2023-10-29T13:54:44.923Z,51.51
2023-10-29T13:57:48.505Z,51.40
2023-10-29T14:00:51.394Z,51.44
2023-10-29T14:03:57.066Z,51.53
2023-10-29T14:07:00.391Z,51.51
2023-10-29T14:10:04.939Z,51.47
2023-10-29T14:13:07.814Z,51.51
2023-10-29T14:16:10.890Z,51.48
2023-10-29T14:19:13.694Z,51.49
2023-10-29T14:22:16.596Z,51.59
2023-10-29T14:25:20.974Z,51.49
2023-10-29T14:28:23.828Z,51.51
2023-10-29T14:31:26.780Z,52.11
2023-10-29T14:34:29.612Z,52.00
2023-10-29T14:37:32.509Z,52.43
2023-10-29T14:40:37.380Z,52.18
2023-10-29T14:43:40.216Z,52.14
2023-10-29T14:46:43.289Z,51.91
2023-10-29T14:49:46.536Z,51.73
2023-10-29T14:52:49.413Z,52.09
2023-10-29T14:55:53.651Z,51.26
2023-10-29T14:58:56.789Z,51.74
2023-10-29T15:01:59.818Z,51.25
2023-10-29T15:05:02.808Z,51.65
2023-10-29T15:08:06.058Z,51.59
2023-10-29T15:11:12.273Z,51.44
2023-10-29T15:14:15.252Z,51.86
2023-10-29T15:17:19.288Z,51.92
2023-10-29T15:20:22.399Z,51.48
2023-10-29T15:23:25.219Z,51.72
2023-10-29T15:26:29.419Z,51.80
2023-10-29T15:29:32.230Z,51.92
2023-10-29T15:32:35.075Z,51.86
2023-10-29T15:35:38.076Z,51.41
2023-10-29T15:38:41.117Z,51.47
2023-10-29T15:41:45.542Z,50.92
2023-10-29T15:44:48.554Z,51.39
2023-10-29T15:47:51.557Z,50.99
2023-10-29T15:50:54.920Z,51.16
2023-10-29T15:53:57.757Z,51.16
2023-10-29T15:57:02.019Z,50.86
2023-10-29T16:00:06.318Z,50.88
2023-10-29T16:03:09.523Z,50.93
2023-10-29T16:06:12.663Z,50.86
2023-10-29T16:09:16.823Z,50.52
2023-10-29T16:12:21.193Z,50.56
2023-10-29T16:15:24.080Z,50.71
2023-10-29T16:18:26.912Z,50.60
2023-10-29T16:21:29.764Z,50.49
2023-10-29T16:24:33.616Z,50.50
2023-10-29T16:27:38.037Z,50.56
2023-10-29T16:30:41.623Z,50.71
2023-10-29T16:33:45.014Z,50.28
2023-10-29T16:36:47.892Z,50.36
2023-10-29T16:39:50.653Z,50.27
2023-10-29T16:42:56.281Z,50.52
2023-10-29T16:45:59.204Z,50.04
2023-10-29T16:49:03.134Z,50.13
2023-10-29T16:52:06.295Z,50.17
2023-10-29T16:55:09.225Z,50.60
2023-10-29T16:58:13.460Z,49.64
2023-10-29T17:01:16.346Z,49.62
2023-10-29T17:04:19.344Z,49.82
2023-10-29T17:07:23.051Z,49.76
2023-10-29T17:10:26.156Z,49.95
2023-10-29T17:13:30.651Z,49.74
2023-10-29T17:16:33.638Z,49.67
2023-10-29T17:19:36.745Z,49.55
2023-10-29T17:22:39.611Z,49.65
2023-10-29T17:25:42.657Z,49.71
2023-10-29T17:28:47.588Z,49.50
2023-10-29T17:31:51.280Z,49.66
2023-10-29T17:34:54.295Z,49.65
2023-10-29T17:37:57.223Z,49.66
2023-10-29T17:41:00.284Z,49.95
2023-10-29T17:44:07.281Z,49.59
2023-10-29T17:47:10.795Z,49.46
2023-10-29T17:50:14.861Z,49.58
2023-10-29T17:53:18.747Z,49.71
2023-10-29T17:56:22.680Z,49.54
2023-10-29T17:59:27.670Z,49.52
2023-10-29T18:02:31.471Z,49.73
2023-10-29T18:05:35.626Z,49.52
2023-10-29T18:08:39.635Z,49.42
2023-10-29T18:11:43.477Z,49.62
2023-10-29T18:14:49.635Z,49.53
2023-10-29T18:17:53.960Z,49.83
2023-10-29T18:20:57.669Z,49.55
2023-10-29T18:24:04.301Z,49.59
2023-10-29T18:27:08.192Z,49.63
2023-10-29T18:30:14.471Z,49.77
2023-10-29T18:33:19.468Z,49.85
2023-10-29T18:36:27.662Z,49.32
2023-10-29T18:39:31.388Z,49.57
2023-10-29T18:42:35.900Z,49.15
2023-10-29T18:45:43.068Z,49.29
2023-10-29T18:48:46.777Z,49.63
2023-10-29T18:51:49.893Z,49.44
2023-10-29T18:54:53.233Z,49.76
2023-10-29T18:57:56.228Z,49.86
2023-10-29T19:01:12.814Z,49.96
2023-10-29T19:04:16.566Z,50.00
2023-10-29T19:07:19.898Z,49.67
2023-10-29T19:10:23.767Z,49.96
2023-10-29T19:13:26.746Z,49.91
2023-10-29T19:16:31.433Z,49.68
2023-10-29T19:19:34.482Z,50.04
2023-10-29T19:22:37.615Z,50.04
2023-10-29T19:25:40.506Z,50.35
2023-10-29T19:28:43.393Z,50.40
2023-10-29T19:31:47.677Z,50.44
2023-10-29T19:34:50.603Z,50.42
2023-10-29T19:37:53.414Z,50.29
2023-10-29T19:40:59.666Z,50.17
2023-10-29T19:44:05.498Z,50.37
2023-10-29T19:47:10.566Z,50.48
2023-10-29T19:50:15.303Z,50.46
2023-10-29T19:53:19.871Z,50.65
2023-10-29T19:56:22.760Z,50.50
2023-10-29T19:59:25.914Z,50.55
2023-10-29T20:02:30.215Z,50.63
2023-10-29T20:05:37.097Z,50.68
2023-10-29T20:08:40.757Z,50.74
2023-10-29T20:11:43.510Z,50.76
2023-10-29T20:14:47.821Z,50.73
2023-10-29T20:17:52.012Z,50.67
2023-10-29T20:20:54.942Z,50.80
2023-10-29T20:23:57.806Z,50.93
2023-10-29T20:27:00.866Z,51.01
2023-10-29T20:30:03.920Z,50.98
2023-10-29T20:33:08.252Z,50.96
2023-10-29T20:36:11.588Z,50.90
2023-10-29T20:39:14.501Z,50.78
2023-10-29T20:42:17.483Z,50.73
2023-10-29T20:45:20.414Z,51.00
2023-10-29T20:48:24.715Z,51.15
2023-10-29T20:51:27.595Z,50.94
2023-10-29T20:54:30.591Z,51.08
2023-10-29T20:57:33.550Z,50.89
2023-10-29T21:00:36.794Z,50.92
2023-10-29T21:03:41.218Z,50.69
2023-10-29T21:06:44.318Z,50.72
2023-10-29T21:09:47.451Z,50.92
2023-10-29T21:12:51.529Z,51.01
2023-10-29T21:15:55.789Z,50.85
2023-10-29T21:19:00.652Z,51.14
2023-10-29T21:22:03.611Z,50.85
2023-10-29T21:25:06.623Z,51.13
2023-10-29T21:28:09.541Z,50.46
2023-10-29T21:31:13.158Z,50.27
2023-10-29T21:34:17.347Z,50.24
2023-10-29T21:37:20.138Z,50.49
2023-10-29T21:40:22.998Z,49.23
2023-10-29T21:43:25.834Z,49.02
2023-10-29T21:46:28.683Z,49.15
2023-10-29T21:49:35.124Z,49.39
2023-10-29T21:52:40.618Z,48.94
2023-10-29T21:55:43.506Z,48.38
2023-10-29T21:58:46.316Z,48.54
2023-10-29T22:01:53.823Z,47.92
2023-10-29T22:04:58.106Z,47.46
2023-10-29T22:08:00.896Z,48.59
2023-10-29T22:11:04.431Z,47.45
2023-10-29T22:14:09.647Z,48.19
2023-10-29T22:17:14.912Z,49.18
2023-10-29T22:20:19.188Z,49.36
2023-10-29T22:23:22.076Z,49.63
2023-10-29T22:26:24.886Z,49.28
2023-10-29T22:29:27.640Z,50.05
2023-10-29T22:32:30.495Z,50.18
2023-10-29T22:35:35.773Z,50.91
2023-10-29T22:38:39.023Z,51.81
2023-10-29T22:41:41.914Z,51.90
2023-10-29T22:44:44.773Z,51.17
2023-10-29T22:47:48.723Z,52.30
2023-10-29T22:50:52.976Z,51.73
2023-10-29T22:53:55.794Z,51.90
2023-10-29T22:56:58.574Z,52.13
2023-10-29T23:00:01.384Z,51.56
2023-10-29T23:03:05.228Z,51.80
2023-10-29T23:06:09.640Z,51.92
2023-10-29T23:09:13.270Z,52.27
2023-10-29T23:12:16.189Z,51.28
2023-10-29T23:15:19.250Z,52.93
2023-10-29T23:18:22.155Z,52.59
2023-10-29T23:21:26.844Z,52.83
2023-10-29T23:24:29.831Z,52.31
2023-10-29T23:27:32.776Z,52.19
2023-10-29T23:30:35.779Z,52.72
2023-10-29T23:33:38.765Z,52.84
2023-10-29T23:36:43.074Z,52.36
2023-10-29T23:39:46.032Z,52.49
2023-10-29T23:42:48.825Z,52.42
2023-10-29T23:45:52.111Z,52.42
2023-10-29T23:48:54.965Z,52.10
2023-10-29T23:51:59.121Z,51.88
2023-10-29T23:55:02.079Z,52.02
2023-10-29T23:58:04.983Z,51.88
